createdAt,value
2016-04-17T00:00:39.740Z,53
2016-04-17T00:01:38.585Z,53
2016-04-17T00:02:39.620Z,53
2016-04-17T00:03:38.419Z,53
2016-04-17T00:04:37.204Z,53
2016-04-17T00:05:36.004Z,53
2016-04-17T00:06:34.802Z,53
2016-04-17T00:07:33.587Z,53
2016-04-17T00:08:32.401Z,53
2016-04-17T00:10:29.985Z,53
2016-04-17T00:11:28.832Z,53
2016-04-17T00:12:29.851Z,53
2016-04-17T00:13:28.650Z,53
2016-04-17T00:14:27.558Z,53
2016-04-17T00:15:26.233Z,53
2016-04-17T00:16:25.048Z,53
2016-04-17T00:17:23.832Z,53
2016-04-17T00:18:22.631Z,53
2016-04-17T00:19:21.416Z,53
2016-04-17T00:20:20.214Z,53
2016-04-17T00:21:19.078Z,53
2016-04-17T00:22:20.095Z,53
2016-04-17T00:23:19.020Z,53
2016-04-17T00:24:17.773Z,53
2016-04-17T00:25:16.478Z,53
2016-04-17T00:26:15.278Z,53
2016-04-17T00:27:14.077Z,53
2016-04-17T00:28:12.877Z,53
2016-04-17T00:29:11.676Z,53
2016-04-17T00:30:10.585Z,53
2016-04-17T00:31:09.432Z,53
2016-04-17T00:32:10.341Z,53
2016-04-17T00:33:09.124Z,53
2016-04-17T00:34:07.940Z,53
2016-04-17T00:35:06.740Z,53
2016-04-17T00:36:05.524Z,53
2016-04-17T00:37:04.324Z,53
2016-04-17T00:38:03.107Z,53
2016-04-17T00:39:01.923Z,53
2016-04-17T00:40:00.815Z,53
2016-04-17T00:40:59.568Z,53
2016-04-17T00:42:00.571Z,53
2016-04-17T00:42:59.481Z,53
2016-04-17T00:43:58.170Z,53
2016-04-17T00:44:56.954Z,53
2016-04-17T00:45:55.753Z,53
2016-04-17T00:46:54.553Z,53
2016-04-17T00:47:53.337Z,53
2016-04-17T00:48:52.137Z,53
2016-04-17T00:49:50.937Z,53
2016-04-17T00:50:49.908Z,53
2016-04-17T00:51:50.801Z,53
2016-04-17T00:52:49.601Z,53
2016-04-17T00:53:48.383Z,53
2016-04-17T00:54:47.292Z,53
2016-04-17T00:55:46.106Z,53
2016-04-17T00:56:44.797Z,53
2016-04-17T00:57:43.564Z,53
2016-04-17T00:58:42.364Z,53
2016-04-17T00:59:41.413Z,53
2016-04-17T01:00:40.636Z,53
2016-04-17T01:01:41.529Z,53
2016-04-17T01:02:40.625Z,53
2016-04-17T01:03:39.752Z,53
2016-04-17T01:04:38.677Z,53
2016-04-17T01:05:37.727Z,53
2016-04-17T01:06:36.793Z,53
2016-04-17T01:07:35.888Z,53
2016-04-17T01:08:34.860Z,53
2016-04-17T01:09:33.925Z,53
2016-04-17T01:10:33.131Z,53
2016-04-17T01:11:34.040Z,53
2016-04-17T01:12:33.090Z,53
2016-04-17T01:13:32.249Z,53
2016-04-17T01:14:31.204Z,53
2016-04-17T01:15:30.222Z,53
2016-04-17T01:16:29.272Z,53
2016-04-17T01:17:28.197Z,53
2016-04-17T01:18:27.106Z,53
2016-04-17T01:19:25.937Z,53
2016-04-17T01:20:24.751Z,53
2016-04-17T01:21:25.786Z,53
2016-04-17T01:22:24.569Z,53
2016-04-17T01:23:23.369Z,53
2016-04-17T01:24:22.216Z,53
2016-04-17T01:25:20.953Z,53
2016-04-17T01:26:19.752Z,53
2016-04-17T01:27:18.583Z,53
2016-04-17T01:28:17.335Z,53
2016-04-17T01:29:16.510Z,53
2016-04-17T01:30:15.247Z,53
2016-04-17T01:31:16.375Z,53
2016-04-17T01:32:15.049Z,53
2016-04-17T01:33:13.849Z,53
2016-04-17T01:34:12.632Z,53
2016-04-17T01:35:11.417Z,53
2016-04-17T01:36:10.248Z,53
2016-04-17T01:37:09.391Z,53
2016-04-17T01:38:08.315Z,53
2016-04-17T01:39:07.365Z,53
2016-04-17T01:40:06.476Z,53
2016-04-17T01:41:07.512Z,53
2016-04-17T01:42:06.545Z,53
2016-04-17T01:43:05.720Z,53
2016-04-17T01:44:04.644Z,53
2016-04-17T01:45:03.834Z,53
2016-04-17T01:46:02.743Z,53
2016-04-17T01:47:01.793Z,53
2016-04-17T01:48:00.951Z,53
2016-04-17T01:48:59.908Z,53
2016-04-17T01:49:59.113Z,53
2016-04-17T01:51:00.053Z,53
2016-04-17T01:51:59.181Z,53
2016-04-17T01:52:58.137Z,53
2016-04-17T01:53:57.156Z,53
2016-04-17T01:54:56.205Z,53
2016-04-17T01:55:55.270Z,53
2016-04-17T01:56:54.304Z,53
2016-04-17T01:57:53.369Z,54
2016-04-17T01:58:52.653Z,53
2016-04-17T01:59:51.766Z,53
2016-04-17T02:00:52.768Z,53
2016-04-17T02:01:51.849Z,53
2016-04-17T02:02:50.882Z,53
2016-04-17T02:03:49.929Z,53
2016-04-17T02:04:49.105Z,54
2016-04-17T02:05:48.404Z,54
2016-04-17T02:06:47.704Z,53
2016-04-17T02:07:46.627Z,54
2016-04-17T02:08:46.037Z,54
2016-04-17T02:09:45.430Z,53
2016-04-17T02:10:46.308Z,54
2016-04-17T02:11:45.717Z,54
2016-04-17T02:12:44.907Z,54
2016-04-17T02:13:44.222Z,54
2016-04-17T02:14:43.506Z,54
2016-04-17T02:15:42.836Z,54
2016-04-17T02:16:42.231Z,54
2016-04-17T02:17:41.529Z,54
2016-04-17T02:18:40.720Z,54
2016-04-17T02:19:40.066Z,54
2016-04-17T02:20:41.100Z,54
2016-04-17T02:21:40.452Z,54
2016-04-17T02:22:39.705Z,54
2016-04-17T02:23:39.003Z,54
2016-04-17T02:24:38.413Z,54
2016-04-17T02:25:37.603Z,54
2016-04-17T02:26:36.933Z,54
2016-04-17T02:27:36.202Z,54
2016-04-17T02:28:35.549Z,54
2016-04-17T02:29:34.879Z,54
2016-04-17T02:30:35.897Z,54
2016-04-17T02:31:35.197Z,54
2016-04-17T02:32:34.497Z,54
2016-04-17T02:33:33.797Z,54
2016-04-17T02:34:33.127Z,54
2016-04-17T02:35:32.396Z,54
2016-04-17T02:36:31.695Z,54
2016-04-17T02:37:30.995Z,54
2016-04-17T02:38:30.294Z,54
2016-04-17T02:39:29.657Z,54
2016-04-17T02:40:30.706Z,54
2016-04-17T02:41:29.974Z,54
2016-04-17T02:42:29.289Z,54
2016-04-17T02:43:28.698Z,54
2016-04-17T02:44:27.889Z,54
2016-04-17T02:45:27.188Z,54
2016-04-17T02:46:26.487Z,54
2016-04-17T02:47:25.818Z,54
2016-04-17T02:48:25.195Z,54
2016-04-17T02:49:24.449Z,54
2016-04-17T02:50:25.483Z,54
2016-04-17T02:51:24.876Z,54
2016-04-17T02:52:24.066Z,54
2016-04-17T02:53:23.491Z,54
2016-04-17T02:54:22.665Z,54
2016-04-17T02:55:21.965Z,54
2016-04-17T02:56:21.264Z,54
2016-04-17T02:57:20.611Z,54
2016-04-17T02:58:19.863Z,54
2016-04-17T02:59:19.225Z,54
2016-04-17T03:00:20.385Z,54
2016-04-17T03:01:19.543Z,54
2016-04-17T03:02:18.858Z,54
2016-04-17T03:03:18.190Z,54
2016-04-17T03:04:17.458Z,54
2016-04-17T03:05:16.757Z,54
2016-04-17T03:06:16.073Z,54
2016-04-17T03:07:15.357Z,54
2016-04-17T03:08:14.671Z,54
2016-04-17T03:09:14.034Z,54
2016-04-17T03:10:15.037Z,54
2016-04-17T03:11:14.351Z,54
2016-04-17T03:12:13.651Z,54
2016-04-17T03:14:12.251Z,54
2016-04-17T03:15:11.550Z,54
2016-04-17T03:16:10.850Z,54
2016-04-17T03:17:10.258Z,54
2016-04-17T03:18:09.448Z,54
2016-04-17T03:19:08.936Z,54
2016-04-17T03:20:09.828Z,54
2016-04-17T03:21:09.238Z,54
2016-04-17T03:22:08.428Z,54
2016-04-17T03:23:07.728Z,54
2016-04-17T03:24:07.043Z,54
2016-04-17T03:25:06.342Z,54
2016-04-17T03:26:05.627Z,54
2016-04-17T03:27:04.925Z,54
2016-04-17T03:28:04.350Z,54
2016-04-17T03:29:03.587Z,54
2016-04-17T03:30:04.622Z,54
2016-04-17T03:31:03.952Z,54
2016-04-17T03:32:03.236Z,54
2016-04-17T03:33:02.520Z,54
2016-04-17T03:34:01.819Z,54
2016-04-17T03:35:01.118Z,54
2016-04-17T03:36:00.435Z,54
2016-04-17T03:36:59.749Z,54
2016-04-17T03:37:59.018Z,54
2016-04-17T03:38:58.520Z,54
2016-04-17T03:39:59.445Z,54
2016-04-17T03:40:58.698Z,54
2016-04-17T03:41:57.998Z,54
2016-04-17T03:42:57.312Z,54
2016-04-17T03:43:56.628Z,54
2016-04-17T03:44:55.912Z,54
2016-04-17T03:45:55.211Z,54
2016-04-17T03:46:54.511Z,54
2016-04-17T03:47:53.795Z,54
2016-04-17T03:48:53.173Z,54
2016-04-17T03:49:54.192Z,54
2016-04-17T03:50:53.600Z,54
2016-04-17T03:51:52.774Z,54
2016-04-17T03:52:52.090Z,54
2016-04-17T03:53:51.389Z,54
2016-04-17T03:54:50.686Z,54
2016-04-17T03:55:49.986Z,54
2016-04-17T03:56:49.410Z,54
2016-04-17T03:57:48.585Z,54
2016-04-17T03:58:47.947Z,54
2016-04-17T03:59:49.090Z,54
2016-04-17T04:00:48.296Z,54
2016-04-17T04:01:47.627Z,54
2016-04-17T04:02:46.864Z,54
2016-04-17T04:03:46.194Z,54
2016-04-17T04:04:45.604Z,54
2016-04-17T04:05:44.810Z,54
2016-04-17T04:06:44.078Z,54
2016-04-17T04:07:43.393Z,54
2016-04-17T04:08:42.755Z,54
2016-04-17T04:09:43.773Z,54
2016-04-17T04:10:43.088Z,54
2016-04-17T04:11:42.372Z,54
2016-04-17T04:12:41.610Z,54
2016-04-17T04:13:40.987Z,54
2016-04-17T04:14:40.396Z,54
2016-04-17T04:15:39.617Z,54
2016-04-17T04:16:38.902Z,54
2016-04-17T04:17:38.185Z,54
2016-04-17T04:18:37.548Z,54
2016-04-17T04:19:38.565Z,54
2016-04-17T04:20:37.865Z,54
2016-04-17T04:21:37.180Z,54
2016-04-17T04:22:36.464Z,54
2016-04-17T04:23:35.889Z,54
2016-04-17T04:24:35.079Z,54
2016-04-17T04:25:34.503Z,54
2016-04-17T04:26:33.928Z,54
2016-04-17T04:27:33.243Z,54
2016-04-17T04:28:32.589Z,54
2016-04-17T04:29:33.608Z,54
2016-04-17T04:30:33.174Z,54
2016-04-17T04:31:32.723Z,54
2016-04-17T04:32:32.272Z,54
2016-04-17T04:33:31.947Z,54
2016-04-17T04:34:31.388Z,54
2016-04-17T04:35:30.969Z,54
2016-04-17T04:36:30.502Z,54
2016-04-17T04:37:30.068Z,54
2016-04-17T04:38:29.663Z,54
2016-04-17T04:39:30.698Z,54
2016-04-17T04:40:30.232Z,54
2016-04-17T04:41:29.499Z,54
2016-04-17T04:42:29.346Z,54
2016-04-17T04:43:28.912Z,54
2016-04-17T04:44:28.461Z,54
2016-04-17T04:45:28.010Z,54
2016-04-17T04:46:27.575Z,54
2016-04-17T04:47:27.126Z,54
2016-04-17T04:48:26.878Z,54
2016-04-17T04:49:27.756Z,54
2016-04-17T04:50:27.320Z,54
2016-04-17T04:51:26.980Z,54
2016-04-17T04:52:26.545Z,54
2016-04-17T04:53:25.986Z,54
2016-04-17T04:54:25.534Z,54
2016-04-17T04:55:25.272Z,54
2016-04-17T04:56:24.649Z,54
2016-04-17T04:57:24.199Z,54
2016-04-17T04:58:23.811Z,54
2016-04-17T04:59:24.860Z,54
2016-04-17T05:00:24.411Z,54
2016-04-17T05:01:24.069Z,54
2016-04-17T05:02:23.510Z,55
2016-04-17T05:03:23.433Z,54
2016-04-17T05:04:22.890Z,54
2016-04-17T05:05:22.424Z,55
2016-04-17T05:06:22.239Z,55
2016-04-17T05:07:22.038Z,54
2016-04-17T05:08:21.651Z,54
2016-04-17T05:09:22.684Z,54
2016-04-17T05:10:22.235Z,55
2016-04-17T05:11:22.049Z,54
2016-04-17T05:12:21.599Z,54
2016-04-17T05:13:21.164Z,54
2016-04-17T05:14:20.713Z,55
2016-04-17T05:15:20.512Z,54
2016-04-17T05:16:20.079Z,55
2016-04-17T05:17:19.893Z,55
2016-04-17T05:18:19.756Z,55
2016-04-17T05:19:20.773Z,55
2016-04-17T05:20:20.573Z,55
2016-04-17T05:21:20.388Z,54
2016-04-17T05:22:20.001Z,54
2016-04-17T05:23:19.503Z,55
2016-04-17T05:24:19.319Z,55
2016-04-17T05:25:19.117Z,55
2016-04-17T05:26:19.042Z,55
2016-04-17T05:27:18.748Z,54
2016-04-17T05:28:18.470Z,54
2016-04-17T05:29:19.378Z,55
2016-04-17T05:30:19.178Z,55
2016-04-17T05:31:18.994Z,55
2016-04-17T05:32:18.918Z,55
2016-04-17T05:33:18.608Z,55
2016-04-17T05:34:18.408Z,55
2016-04-17T05:35:18.224Z,55
2016-04-17T05:36:18.038Z,55
2016-04-17T05:37:17.822Z,55
2016-04-17T05:38:17.699Z,55
2016-04-17T05:39:18.827Z,55
2016-04-17T05:40:18.518Z,55
2016-04-17T05:41:18.333Z,55
2016-04-17T05:42:18.132Z,55
2016-04-17T05:43:17.932Z,55
2016-04-17T05:44:17.748Z,55
2016-04-17T05:45:17.672Z,55
2016-04-17T05:46:17.362Z,55
2016-04-17T05:47:17.162Z,55
2016-04-17T05:48:17.024Z,55
2016-04-17T05:49:18.167Z,55
2016-04-17T05:50:17.857Z,55
2016-04-17T05:51:17.782Z,55
2016-04-17T05:52:17.504Z,55
2016-04-17T05:53:17.272Z,55
2016-04-17T05:54:17.118Z,55
2016-04-17T05:55:16.886Z,55
2016-04-17T05:56:16.701Z,55
2016-04-17T05:57:16.500Z,55
2016-04-17T05:58:16.379Z,55
2016-04-17T05:59:17.397Z,55
2016-04-17T06:00:17.322Z,55
2016-04-17T06:01:17.136Z,55
2016-04-17T06:02:16.812Z,55
2016-04-17T06:03:16.648Z,55
2016-04-17T06:04:16.503Z,55
2016-04-17T06:06:16.198Z,55
2016-04-17T06:07:16.052Z,55
2016-04-17T06:08:15.931Z,55
2016-04-17T06:09:16.948Z,55
2016-04-17T06:10:16.777Z,55
2016-04-17T06:11:16.716Z,55
2016-04-17T06:12:16.421Z,55
2016-04-17T06:13:16.288Z,55
2016-04-17T06:14:16.078Z,55
2016-04-17T06:15:15.993Z,55
2016-04-17T06:16:15.688Z,55
2016-04-17T06:17:15.509Z,55
2016-04-17T06:18:15.481Z,55
2016-04-17T06:19:16.393Z,55
2016-04-17T06:20:16.193Z,55
2016-04-17T06:21:16.028Z,55
2016-04-17T06:22:15.828Z,55
2016-04-17T06:23:15.644Z,55
2016-04-17T06:24:15.445Z,55
2016-04-17T06:25:15.245Z,55
2016-04-17T06:26:15.061Z,55
2016-04-17T06:27:14.862Z,55
2016-04-17T06:28:14.723Z,55
2016-04-17T06:29:15.758Z,55
2016-04-17T06:30:15.666Z,55
2016-04-17T06:31:15.356Z,55
2016-04-17T06:32:15.172Z,55
2016-04-17T06:33:15.096Z,55
2016-04-17T06:34:14.911Z,55
2016-04-17T06:35:14.633Z,55
2016-04-17T06:36:14.401Z,55
2016-04-17T06:37:14.216Z,55
2016-04-17T06:38:14.079Z,55
2016-04-17T06:39:15.096Z,55
2016-04-17T06:40:14.928Z,55
2016-04-17T06:41:14.758Z,55
2016-04-17T06:42:14.526Z,55
2016-04-17T06:43:14.343Z,55
2016-04-17T06:44:14.157Z,55
2016-04-17T06:45:13.973Z,55
2016-04-17T06:46:13.772Z,55
2016-04-17T06:47:13.571Z,55
2016-04-17T06:48:13.449Z,55
2016-04-17T06:49:14.515Z,55
2016-04-17T06:50:14.282Z,55
2016-04-17T06:51:14.098Z,55
2016-04-17T06:52:13.882Z,55
2016-04-17T06:53:13.697Z,55
2016-04-17T06:54:13.887Z,55
2016-04-17T06:55:13.327Z,55
2016-04-17T06:56:13.173Z,55
2016-04-17T06:57:12.881Z,55
2016-04-17T06:58:12.913Z,55
2016-04-17T06:59:13.823Z,55
2016-04-17T07:00:13.638Z,55
2016-04-17T07:01:13.437Z,55
2016-04-17T07:02:13.269Z,55
2016-04-17T07:03:13.083Z,55
2016-04-17T07:04:12.867Z,55
2016-04-17T07:05:12.792Z,55
2016-04-17T07:06:12.482Z,55
2016-04-17T07:07:12.328Z,55
2016-04-17T07:08:12.175Z,55
2016-04-17T07:09:13.177Z,55
2016-04-17T07:10:13.008Z,55
2016-04-17T07:11:12.792Z,55
2016-04-17T07:12:12.717Z,55
2016-04-17T07:13:12.423Z,55
2016-04-17T07:14:12.253Z,55
2016-04-17T07:15:12.021Z,55
2016-04-17T07:16:11.837Z,55
2016-04-17T07:17:11.636Z,55
2016-04-17T07:18:11.530Z,55
2016-04-17T07:19:12.532Z,55
2016-04-17T07:20:12.348Z,55
2016-04-17T07:21:12.147Z,55
2016-04-17T07:22:11.948Z,55
2016-04-17T07:23:11.762Z,55
2016-04-17T07:24:11.578Z,55
2016-04-17T07:25:11.376Z,55
2016-04-17T07:26:11.176Z,55
2016-04-17T07:27:10.992Z,55
2016-04-17T07:28:10.854Z,55
2016-04-17T07:29:11.887Z,55
2016-04-17T07:30:11.812Z,55
2016-04-17T07:31:11.486Z,55
2016-04-17T07:32:11.302Z,55
2016-04-17T07:33:11.117Z,55
2016-04-17T07:34:10.917Z,55
2016-04-17T07:35:10.732Z,55
2016-04-17T07:36:10.531Z,55
2016-04-17T07:37:10.363Z,55
2016-04-17T07:38:10.319Z,55
2016-04-17T07:39:11.211Z,55
2016-04-17T07:40:11.027Z,55
2016-04-17T07:41:10.841Z,55
2016-04-17T07:42:10.672Z,55
2016-04-17T07:43:10.472Z,55
2016-04-17T07:44:10.257Z,55
2016-04-17T07:45:10.055Z,55
2016-04-17T07:46:09.887Z,55
2016-04-17T07:47:09.810Z,55
2016-04-17T07:48:09.563Z,55
2016-04-17T07:49:10.566Z,55
2016-04-17T07:50:10.490Z,55
2016-04-17T07:51:10.181Z,55
2016-04-17T07:52:09.996Z,55
2016-04-17T07:53:09.796Z,55
2016-04-17T07:54:09.596Z,55
2016-04-17T07:55:09.411Z,55
2016-04-17T07:56:09.210Z,55
2016-04-17T07:57:09.025Z,55
2016-04-17T07:58:08.887Z,55
2016-04-17T07:59:09.905Z,55
2016-04-17T08:00:09.721Z,55
2016-04-17T08:01:09.552Z,55
2016-04-17T08:02:09.336Z,55
2016-04-17T08:03:09.275Z,54
2016-04-17T08:04:08.700Z,54
2016-04-17T08:05:08.281Z,54
2016-04-17T08:06:07.815Z,54
2016-04-17T08:07:07.489Z,54
2016-04-17T08:08:06.961Z,54
2016-04-17T08:09:07.995Z,54
2016-04-17T08:10:07.295Z,54
2016-04-17T08:11:06.594Z,54
2016-04-17T08:12:06.018Z,54
2016-04-17T08:13:05.193Z,54
2016-04-17T08:14:04.493Z,54
2016-04-17T08:15:03.808Z,54
2016-04-17T08:16:03.093Z,54
2016-04-17T08:17:02.407Z,54
2016-04-17T08:18:01.737Z,54
2016-04-17T08:19:02.771Z,54
2016-04-17T08:20:02.181Z,54
2016-04-17T08:21:01.386Z,54
2016-04-17T08:22:00.671Z,53
2016-04-17T08:22:59.720Z,53
2016-04-17T08:23:58.754Z,53
2016-04-17T08:24:57.803Z,53
2016-04-17T08:25:56.650Z,53
2016-04-17T08:26:55.400Z,53
2016-04-17T08:27:54.231Z,53
2016-04-17T08:28:55.375Z,53
2016-04-17T08:29:54.049Z,53
2016-04-17T08:30:52.848Z,53
2016-04-17T08:31:51.633Z,53
2016-04-17T08:32:50.416Z,53
2016-04-17T08:33:49.231Z,53
2016-04-17T08:34:48.016Z,53
2016-04-17T08:35:46.814Z,53
2016-04-17T08:36:45.614Z,53
2016-04-17T08:37:44.445Z,53
2016-04-17T08:38:45.447Z,53
2016-04-17T08:39:44.247Z,53
2016-04-17T08:40:43.047Z,53
2016-04-17T08:41:41.878Z,52
2016-04-17T08:42:40.397Z,52
2016-04-17T08:43:38.978Z,52
2016-04-17T08:44:37.589Z,52
2016-04-17T08:45:35.607Z,52
2016-04-17T08:46:34.548Z,52
2016-04-17T08:47:33.160Z,52
2016-04-17T08:48:34.163Z,52
2016-04-17T08:49:32.712Z,52
2016-04-17T08:50:31.246Z,52
2016-04-17T08:51:29.780Z,52
2016-04-17T08:52:28.315Z,52
2016-04-17T08:53:26.863Z,52
2016-04-17T08:54:25.506Z,53
2016-04-17T08:55:24.165Z,53
2016-04-17T08:56:22.965Z,53
2016-04-17T08:57:21.812Z,53
2016-04-17T08:58:22.940Z,53
2016-04-17T08:59:21.614Z,53
2016-04-17T09:00:20.398Z,53
2016-04-17T09:01:19.339Z,52
2016-04-17T09:02:17.731Z,53
2016-04-17T09:03:16.562Z,52
2016-04-17T09:04:15.111Z,52
2016-04-17T09:05:13.645Z,52
2016-04-17T09:06:12.180Z,52
2016-04-17T09:07:10.792Z,52
2016-04-17T09:08:11.794Z,52
2016-04-17T09:09:10.328Z,52
2016-04-17T09:10:08.987Z,52
2016-04-17T09:11:07.194Z,52
2016-04-17T09:12:05.446Z,52
2016-04-17T09:13:03.730Z,52
2016-04-17T09:14:02.011Z,52
2016-04-17T09:15:00.294Z,52
2016-04-17T09:15:58.580Z,52
2016-04-17T09:16:56.925Z,52
2016-04-17T09:17:58.053Z,52
2016-04-17T09:18:56.227Z,52
2016-04-17T09:19:54.527Z,52
2016-04-17T09:20:52.811Z,52
2016-04-17T09:21:51.110Z,52
2016-04-17T09:22:49.363Z,52
2016-04-17T09:23:47.647Z,52
2016-04-17T09:24:46.057Z,52
2016-04-17T09:25:44.215Z,52
2016-04-17T09:26:42.562Z,52
2016-04-17T09:27:43.596Z,52
2016-04-17T09:30:38.432Z,52
2016-04-17T09:31:36.762Z,52
2016-04-17T09:32:35.125Z,52
2016-04-17T09:33:33.300Z,52
2016-04-17T09:34:31.584Z,52
2016-04-17T09:35:29.883Z,52
2016-04-17T09:36:28.214Z,52
2016-04-17T09:37:29.217Z,52
2016-04-17T09:38:27.642Z,52
2016-04-17T09:39:25.784Z,52
2016-04-17T09:40:24.100Z,52
2016-04-17T09:41:22.368Z,52
2016-04-17T09:42:20.636Z,52
2016-04-17T09:43:18.935Z,52
2016-04-17T09:44:17.219Z,52
2016-04-17T09:45:15.519Z,52
2016-04-17T09:46:13.960Z,52
2016-04-17T09:47:14.852Z,52
2016-04-17T09:48:13.153Z,52
2016-04-17T09:49:11.421Z,52
2016-04-17T09:50:09.736Z,52
2016-04-17T09:51:08.020Z,52
2016-04-17T09:52:06.304Z,52
2016-04-17T09:53:04.601Z,52
2016-04-17T09:54:02.963Z,52
2016-04-17T09:55:01.247Z,52
2016-04-17T09:55:59.484Z,52
2016-04-17T09:57:00.518Z,52
2016-04-17T09:57:58.786Z,52
2016-04-17T09:58:57.054Z,52
2016-04-17T09:59:55.337Z,52
2016-04-17T10:00:53.622Z,52
2016-04-17T10:01:51.921Z,52
2016-04-17T10:02:50.237Z,52
2016-04-17T10:03:48.506Z,52
2016-04-17T10:04:46.899Z,52
2016-04-17T10:05:45.151Z,52
2016-04-17T10:06:46.139Z,52
2016-04-17T10:07:44.407Z,52
2016-04-17T10:08:42.690Z,52
2016-04-17T10:09:41.286Z,52
2016-04-17T10:10:39.775Z,52
2016-04-17T10:11:38.323Z,52
2016-04-17T10:12:36.983Z,52
2016-04-17T10:13:35.485Z,52
2016-04-17T10:14:33.941Z,52
2016-04-17T10:15:32.537Z,52
2016-04-17T10:16:33.541Z,52
2016-04-17T10:17:32.089Z,52
2016-04-17T10:18:30.624Z,52
2016-04-17T10:19:29.174Z,52
2016-04-17T10:20:27.707Z,52
2016-04-17T10:21:26.288Z,52
2016-04-17T10:22:24.774Z,52
2016-04-17T10:23:23.324Z,52
2016-04-17T10:24:21.858Z,52
2016-04-17T10:25:20.595Z,52
2016-04-17T10:26:21.442Z,53
2016-04-17T10:27:20.273Z,52
2016-04-17T10:28:18.791Z,52
2016-04-17T10:29:17.341Z,52
2016-04-17T10:30:15.874Z,52
2016-04-17T10:31:14.424Z,52
2016-04-17T10:32:13.067Z,52
2016-04-17T10:33:11.523Z,52
2016-04-17T10:34:10.042Z,52
2016-04-17T10:35:08.604Z,52
2016-04-17T10:36:09.640Z,52
2016-04-17T10:37:08.219Z,52
2016-04-17T10:38:06.737Z,52
2016-04-17T10:39:05.271Z,52
2016-04-17T10:40:03.759Z,53
2016-04-17T10:41:02.605Z,52
2016-04-17T10:42:01.139Z,52
2016-04-17T10:42:59.656Z,52
2016-04-17T10:43:58.222Z,52
2016-04-17T10:44:56.803Z,52
2016-04-17T10:45:57.805Z,52
2016-04-17T10:46:56.340Z,52
2016-04-17T10:47:54.904Z,52
2016-04-17T10:48:53.455Z,52
2016-04-17T10:49:51.958Z,52
2016-04-17T10:50:50.522Z,52
2016-04-17T10:51:49.041Z,52
2016-04-17T10:52:47.575Z,52
2016-04-17T10:53:46.108Z,52
2016-04-17T10:54:44.721Z,52
2016-04-17T10:55:45.723Z,52
2016-04-17T10:56:44.476Z,52
2016-04-17T10:57:42.806Z,52
2016-04-17T10:58:41.340Z,52
2016-04-17T10:59:39.844Z,53
2016-04-17T11:00:38.690Z,52
2016-04-17T11:01:37.208Z,52
2016-04-17T11:02:35.742Z,52
2016-04-17T11:03:34.307Z,52
2016-04-17T11:04:32.873Z,52
2016-04-17T11:05:34.609Z,53
2016-04-17T11:06:32.768Z,53
2016-04-17T11:07:31.473Z,53
2016-04-17T11:08:30.258Z,53
2016-04-17T11:09:29.073Z,52
2016-04-17T11:10:27.700Z,53
2016-04-17T11:11:26.484Z,53
2016-04-17T11:12:25.222Z,53
2016-04-17T11:13:23.944Z,53
2016-04-17T11:14:22.806Z,53
2016-04-17T11:15:23.824Z,53
2016-04-17T11:16:22.639Z,53
2016-04-17T11:17:21.392Z,53
2016-04-17T11:18:20.191Z,53
2016-04-17T11:19:18.960Z,53
2016-04-17T11:20:17.775Z,53
2016-04-17T11:21:16.684Z,53
2016-04-17T11:22:15.374Z,53
2016-04-17T11:23:14.173Z,53
2016-04-17T11:24:12.988Z,53
2016-04-17T11:25:14.007Z,53
2016-04-17T11:26:12.791Z,53
2016-04-17T11:27:11.590Z,53
2016-04-17T11:28:10.527Z,53
2016-04-17T11:29:09.171Z,53
2016-04-17T11:30:07.955Z,53
2016-04-17T11:31:06.770Z,53
2016-04-17T11:32:05.538Z,53
2016-04-17T11:33:04.588Z,53
2016-04-17T11:34:03.434Z,53
2016-04-17T11:35:04.579Z,53
2016-04-17T11:36:03.503Z,53
2016-04-17T11:37:02.551Z,53
2016-04-17T11:38:01.633Z,53
2016-04-17T11:39:00.761Z,53
2016-04-17T11:39:59.685Z,53
2016-04-17T11:40:58.719Z,53
2016-04-17T11:41:57.769Z,53
2016-04-17T11:42:56.412Z,53
2016-04-17T11:43:56.040Z,53
2016-04-17T11:44:56.934Z,53
2016-04-17T11:45:55.983Z,53
2016-04-17T11:46:55.033Z,53
2016-04-17T11:47:53.832Z,53
2016-04-17T11:48:52.616Z,53
2016-04-17T11:49:51.400Z,53
2016-04-17T11:50:50.308Z,53
2016-04-17T11:51:48.999Z,53
2016-04-17T11:52:47.798Z,53
2016-04-17T11:53:46.769Z,53
2016-04-17T11:54:47.647Z,53
2016-04-17T11:55:46.447Z,53
2016-04-17T11:56:45.246Z,53
2016-04-17T11:57:44.030Z,53
2016-04-17T11:58:42.846Z,52
2016-04-17T11:59:41.130Z,51
2016-04-17T12:00:39.164Z,51
2016-04-17T12:01:37.057Z,50
2016-04-17T12:02:38.529Z,49
2016-04-17T12:03:39.641Z,49
2016-04-17T12:04:40.659Z,48
2016-04-17T12:05:41.224Z,48
2016-04-17T12:06:41.665Z,48
2016-04-17T12:07:41.854Z,47
2016-04-17T12:08:41.920Z,47
2016-04-17T12:09:41.719Z,47
2016-04-17T12:10:41.550Z,46
2016-04-17T12:11:41.021Z,46
2016-04-17T12:12:40.134Z,45
2016-04-17T12:13:38.964Z,45
2016-04-17T12:14:39.983Z,45
2016-04-17T12:15:38.781Z,44
2016-04-17T12:16:37.316Z,44
2016-04-17T12:17:35.850Z,44
2016-04-17T12:18:34.133Z,44
2016-04-17T12:19:32.417Z,43
2016-04-17T12:20:30.483Z,43
2016-04-17T12:21:28.345Z,43
2016-04-17T12:22:26.066Z,43
2016-04-17T12:23:23.835Z,43
2016-04-17T12:24:24.962Z,43
2016-04-17T12:25:22.622Z,43
2016-04-17T12:26:20.406Z,42
2016-04-17T12:27:18.189Z,42
2016-04-17T12:28:16.099Z,42
2016-04-17T12:29:13.741Z,42
2016-04-17T12:30:11.523Z,42
2016-04-17T12:31:09.463Z,42
2016-04-17T12:32:11.044Z,42
2016-04-17T12:33:12.547Z,42
2016-04-17T12:34:13.552Z,42
2016-04-17T12:35:11.318Z,42
2016-04-17T12:36:09.102Z,42
2016-04-17T12:37:06.870Z,42
2016-04-17T12:38:04.654Z,42
2016-04-17T12:39:02.438Z,42
2016-04-17T12:40:00.221Z,42
2016-04-17T12:40:57.990Z,42
2016-04-17T12:41:55.774Z,41
2016-04-17T12:42:57.167Z,41
2016-04-17T12:43:58.216Z,42
2016-04-17T12:44:59.766Z,42
2016-04-17T12:46:01.378Z,42
2016-04-17T12:47:02.975Z,42
2016-04-17T12:48:04.509Z,42
2016-04-17T12:49:06.089Z,42
2016-04-17T12:50:07.670Z,42
2016-04-17T12:51:09.250Z,42
2016-04-17T12:52:10.941Z,42
2016-04-17T12:53:12.585Z,42
2016-04-17T12:54:13.477Z,42
2016-04-17T12:55:15.061Z,42
2016-04-17T12:56:16.641Z,42
2016-04-17T12:57:18.238Z,42
2016-04-17T12:58:19.788Z,42
2016-04-17T12:59:21.322Z,41
2016-04-17T13:00:22.716Z,41
2016-04-17T13:01:24.031Z,41
2016-04-17T13:02:25.127Z,41
2016-04-17T13:03:26.490Z,41
2016-04-17T13:04:27.633Z,41
2016-04-17T13:05:28.838Z,40
2016-04-17T13:06:29.668Z,41
2016-04-17T13:07:30.843Z,41
2016-04-17T13:08:31.799Z,41
2016-04-17T13:09:32.881Z,41
2016-04-17T13:10:34.336Z,41
2016-04-17T13:11:35.557Z,41
2016-04-17T13:12:36.857Z,41
2016-04-17T13:13:38.251Z,41
2016-04-17T13:14:39.253Z,41
2016-04-17T13:15:40.600Z,41
2016-04-17T13:16:42.103Z,42
2016-04-17T13:17:43.511Z,42
2016-04-17T13:18:45.092Z,42
2016-04-17T13:19:46.673Z,42
2016-04-17T13:20:48.238Z,41
2016-04-17T13:21:49.584Z,41
2016-04-17T13:22:50.900Z,41
2016-04-17T13:23:52.293Z,41
2016-04-17T13:24:53.436Z,42
2016-04-17T13:25:55.016Z,42
2016-04-17T13:26:56.472Z,42
2016-04-17T13:27:58.038Z,42
2016-04-17T13:28:59.603Z,42
2016-04-17T13:29:57.512Z,42
2016-04-17T13:30:55.187Z,42
2016-04-17T13:31:52.955Z,42
2016-04-17T13:32:50.724Z,42
2016-04-17T13:33:48.726Z,42
2016-04-17T13:34:49.573Z,42
2016-04-17T13:35:47.482Z,42
2016-04-17T13:36:45.140Z,42
2016-04-17T13:37:42.924Z,42
2016-04-17T13:38:40.818Z,42
2016-04-17T13:39:38.493Z,42
2016-04-17T13:40:36.307Z,42
2016-04-17T13:41:34.045Z,42
2016-04-17T13:42:31.845Z,42
2016-04-17T13:43:29.675Z,42
2016-04-17T13:44:30.678Z,42
2016-04-17T13:45:28.462Z,42
2016-04-17T13:46:26.245Z,43
2016-04-17T13:47:24.279Z,43
2016-04-17T13:48:22.314Z,43
2016-04-17T13:49:20.597Z,43
2016-04-17T13:50:18.881Z,43
2016-04-17T13:51:17.181Z,43
2016-04-17T13:52:15.462Z,44
2016-04-17T13:53:14.074Z,44
2016-04-17T13:54:15.077Z,44
2016-04-17T13:55:13.877Z,44
2016-04-17T13:56:12.786Z,44
2016-04-17T13:57:11.725Z,44
2016-04-17T13:58:10.260Z,44
2016-04-17T13:59:09.059Z,44
2016-04-17T14:00:07.843Z,44
2016-04-17T14:01:06.658Z,44
2016-04-17T14:02:05.442Z,44
2016-04-17T14:03:04.288Z,45
2016-04-17T14:04:05.307Z,45
2016-04-17T14:05:04.356Z,45
2016-04-17T14:06:03.406Z,45
2016-04-17T14:07:02.502Z,45
2016-04-17T14:08:01.489Z,45
2016-04-17T14:09:00.820Z,45
2016-04-17T14:09:59.854Z,45
2016-04-17T14:10:59.153Z,45
2016-04-17T14:11:58.515Z,45